Mankato Regional Airport

Airport
ICAO code: 
KMKT
IATA Code: 
MKT
Summary
ICAO Region: 
NAM
Territory: 
Location: 
Mankato, Minnesota
Serving: 
Mankato
Elevation: 
1020 ft
Coordinates: 
Aerial View: 
44° 13' 12.727" N, 93° 55' 4.41" W
Metar
Observation
KMKT 020956Z AUTO 31011KT 10SM CLR 08/03 A2978 RMK AO2 SLP089 T00780033
Station
Mankato, Mankato Regional Airport
Date/Time
2021-12-02 09:56:00
Wind direction
310°
Wind speed
11 kts
Lowest cloud amount
n/a
Temperature
7.8°C
Dew point
3.3°C
Humidity
73%
Weather condition
n/a

Mankato Regional Airport is a public airport located five miles (8 km) northeast of the central business district of Mankato, a city in Blue Earth County, Minnesota, United States.

Runways

Designator Length Width Surface Rops
4/22 1219 23 ASP Yes/Yes
15/33 1646 30 ASP Yes/Yes
Airport map: 
Aerial View: 

SKYbrary Partners:

Safety knowledge contributed by: